sensor_id;sensor_type;location;lat;lon;timestamp;P1;durP1;ratioP1;P2;durP2;ratioP2
76204;SDS011;64986;55.672;37.628;2023-08-01T00:01:27;6.20;;;4.30;;
76204;SDS011;64986;55.672;37.628;2023-08-01T00:03:54;7.57;;;4.60;;
76204;SDS011;64986;55.672;37.628;2023-08-01T00:06:19;6.82;;;4.38;;
76204;SDS011;64986;55.672;37.628;2023-08-01T00:08:45;6.93;;;4.50;;
76204;SDS011;64986;55.672;37.628;2023-08-01T00:11:11;6.55;;;4.50;;
76204;SDS011;64986;55.672;37.628;2023-08-01T00:13:39;6.85;;;4.50;;
76204;SDS011;64986;55.672;37.628;2023-08-01T00:16:04;7.10;;;4.65;;
76204;SDS011;64986;55.672;37.628;2023-08-01T00:18:30;7.63;;;4.18;;
76204;SDS011;64986;55.672;37.628;2023-08-01T00:20:55;9.00;;;5.38;;
76204;SDS011;64986;55.672;37.628;2023-08-01T00:23:21;7.43;;;4.82;;
76204;SDS011;64986;55.672;37.628;2023-08-01T00:25:46;10.68;;;4.65;;
76204;SDS011;64986;55.672;37.628;2023-08-01T00:28:17;8.48;;;5.57;;
76204;SDS011;64986;55.672;37.628;2023-08-01T00:30:43;8.13;;;4.80;;
76204;SDS011;64986;55.672;37.628;2023-08-01T00:33:08;9.60;;;5.28;;
76204;SDS011;64986;55.672;37.628;2023-08-01T00:35:33;8.40;;;4.80;;
76204;SDS011;64986;55.672;37.628;2023-08-01T00:37:59;9.77;;;5.35;;
76204;SDS011;64986;55.672;37.628;2023-08-01T00:40:29;9.65;;;5.47;;
76204;SDS011;64986;55.672;37.628;2023-08-01T00:42:56;10.63;;;5.47;;
76204;SDS011;64986;55.672;37.628;2023-08-01T00:45:22;10.07;;;4.95;;
76204;SDS011;64986;55.672;37.628;2023-08-01T00:47:50;9.88;;;4.95;;
76204;SDS011;64986;55.672;37.628;2023-08-01T00:50:16;13.75;;;5.47;;
76204;SDS011;64986;55.672;37.628;2023-08-01T00:52:45;4.85;;;4.03;;
76204;SDS011;64986;55.672;37.628;2023-08-01T00:55:11;10.23;;;6.28;;
76204;SDS011;64986;55.672;37.628;2023-08-01T00:57:37;6.13;;;4.75;;
76204;SDS011;64986;55.672;37.628;2023-08-01T01:00:03;6.65;;;4.80;;
76204;SDS011;64986;55.672;37.628;2023-08-01T01:02:28;9.48;;;4.70;;
76204;SDS011;64986;55.672;37.628;2023-08-01T01:04:54;10.40;;;4.57;;
76204;SDS011;64986;55.672;37.628;2023-08-01T01:07:19;10.38;;;5.13;;
76204;SDS011;64986;55.672;37.628;2023-08-01T01:09:47;16.70;;;6.07;;
76204;SDS011;64986;55.672;37.628;2023-08-01T01:12:13;18.23;;;6.28;;
76204;SDS011;64986;55.672;37.628;2023-08-01T01:14:39;19.00;;;5.57;;
76204;SDS011;64986;55.672;37.628;2023-08-01T01:17:04;11.20;;;5.55;;
76204;SDS011;64986;55.672;37.628;2023-08-01T01:19:30;10.80;;;5.70;;
76204;SDS011;64986;55.672;37.628;2023-08-01T01:22:05;11.80;;;6.10;;
76204;SDS011;64986;55.672;37.628;2023-08-01T01:24:32;18.50;;;6.13;;
76204;SDS011;64986;55.672;37.628;2023-08-01T01:27:00;12.75;;;6.30;;
76204;SDS011;64986;55.672;37.628;2023-08-01T01:29:28;10.95;;;6.07;;
76204;SDS011;64986;55.672;37.628;2023-08-01T01:31:55;10.20;;;5.88;;
76204;SDS011;64986;55.672;37.628;2023-08-01T01:34:22;12.60;;;7.03;;
76204;SDS011;64986;55.672;37.628;2023-08-01T01:36:48;9.55;;;6.40;;
76204;SDS011;64986;55.672;37.628;2023-08-01T01:39:14;12.55;;;6.80;;
76204;SDS011;64986;55.672;37.628;2023-08-01T01:41:39;9.93;;;6.82;;
76204;SDS011;64986;55.672;37.628;2023-08-01T01:44:05;16.85;;;6.10;;
76204;SDS011;64986;55.672;37.628;2023-08-01T01:46:30;10.63;;;6.75;;
76204;SDS011;64986;55.672;37.628;2023-08-01T01:48:56;10.65;;;6.22;;
76204;SDS011;64986;55.672;37.628;2023-08-01T01:51:22;15.68;;;7.85;;
76204;SDS011;64986;55.672;37.628;2023-08-01T01:53:49;16.08;;;8.95;;
76204;SDS011;64986;55.672;37.628;2023-08-01T01:56:15;15.52;;;10.52;;
76204;SDS011;64986;55.672;37.628;2023-08-01T02:02:06;21.00;;;9.40;;
76204;SDS011;64986;55.672;37.628;2023-08-01T02:04:32;19.20;;;8.60;;
76204;SDS011;64986;55.672;37.628;2023-08-01T02:06:57;18.38;;;9.38;;
76204;SDS011;64986;55.672;37.628;2023-08-01T02:09:23;19.33;;;8.75;;
76204;SDS011;64986;55.672;37.628;2023-08-01T02:11:49;14.85;;;8.30;;
76204;SDS011;64986;55.672;37.628;2023-08-01T02:14:14;14.52;;;7.55;;
76204;SDS011;64986;55.672;37.628;2023-08-01T02:16:40;15.68;;;7.28;;
76204;SDS011;64986;55.672;37.628;2023-08-01T02:19:06;16.88;;;8.07;;
76204;SDS011;64986;55.672;37.628;2023-08-01T02:21:32;14.43;;;7.28;;
76204;SDS011;64986;55.672;37.628;2023-08-01T02:23:57;21.00;;;8.93;;
76204;SDS011;64986;55.672;37.628;2023-08-01T02:26:23;13.75;;;8.27;;
76204;SDS011;64986;55.672;37.628;2023-08-01T02:28:49;17.65;;;8.52;;
76204;SDS011;64986;55.672;37.628;2023-08-01T02:31:15;18.58;;;8.73;;
76204;SDS011;64986;55.672;37.628;2023-08-01T02:33:41;17.70;;;8.55;;
76204;SDS011;64986;55.672;37.628;2023-08-01T02:36:07;15.50;;;7.88;;
76204;SDS011;64986;55.672;37.628;2023-08-01T02:38:32;20.98;;;8.82;;
76204;SDS011;64986;55.672;37.628;2023-08-01T02:40:58;18.70;;;8.40;;
76204;SDS011;64986;55.672;37.628;2023-08-01T02:43:23;12.38;;;7.65;;
76204;SDS011;64986;55.672;37.628;2023-08-01T02:45:49;15.52;;;7.07;;
76204;SDS011;64986;55.672;37.628;2023-08-01T02:48:14;22.52;;;8.90;;
76204;SDS011;64986;55.672;37.628;2023-08-01T02:50:40;25.55;;;8.18;;
76204;SDS011;64986;55.672;37.628;2023-08-01T02:53:05;19.70;;;7.30;;
76204;SDS011;64986;55.672;37.628;2023-08-01T02:55:31;14.55;;;7.85;;
76204;SDS011;64986;55.672;37.628;2023-08-01T02:57:56;12.52;;;7.45;;
76204;SDS011;64986;55.672;37.628;2023-08-01T03:00:22;15.27;;;8.02;;
76204;SDS011;64986;55.672;37.628;2023-08-01T03:02:47;19.98;;;7.80;;
76204;SDS011;64986;55.672;37.628;2023-08-01T03:05:13;16.83;;;7.95;;
76204;SDS011;64986;55.672;37.628;2023-08-01T03:07:38;16.20;;;7.60;;
76204;SDS011;64986;55.672;37.628;2023-08-01T03:10:04;16.25;;;7.53;;
76204;SDS011;64986;55.672;37.628;2023-08-01T03:12:31;14.95;;;7.65;;
76204;SDS011;64986;55.672;37.628;2023-08-01T03:14:57;19.15;;;8.23;;
76204;SDS011;64986;55.672;37.628;2023-08-01T03:17:23;29.52;;;8.40;;
76204;SDS011;64986;55.672;37.628;2023-08-01T03:19:48;16.65;;;8.25;;
76204;SDS011;64986;55.672;37.628;2023-08-01T03:22:14;14.02;;;6.78;;
76204;SDS011;64986;55.672;37.628;2023-08-01T03:24:39;13.63;;;7.70;;
76204;SDS011;64986;55.672;37.628;2023-08-01T03:27:05;15.23;;;6.70;;
76204;SDS011;64986;55.672;37.628;2023-08-01T03:29:30;14.32;;;6.25;;
76204;SDS011;64986;55.672;37.628;2023-08-01T03:31:56;11.60;;;5.90;;
76204;SDS011;64986;55.672;37.628;2023-08-01T03:34:22;13.98;;;6.95;;
76204;SDS011;64986;55.672;37.628;2023-08-01T03:36:47;12.82;;;7.25;;
76204;SDS011;64986;55.672;37.628;2023-08-01T03:39:12;16.00;;;7.07;;
76204;SDS011;64986;55.672;37.628;2023-08-01T03:41:38;11.43;;;7.72;;
76204;SDS011;64986;55.672;37.628;2023-08-01T03:44:03;16.30;;;7.75;;
76204;SDS011;64986;55.672;37.628;2023-08-01T03:46:29;9.77;;;7.10;;
76204;SDS011;64986;55.672;37.628;2023-08-01T03:48:55;9.50;;;6.60;;
76204;SDS011;64986;55.672;37.628;2023-08-01T03:51:20;16.63;;;7.15;;
76204;SDS011;64986;55.672;37.628;2023-08-01T03:53:46;19.90;;;8.77;;
76204;SDS011;64986;55.672;37.628;2023-08-01T03:56:12;16.73;;;8.48;;
76204;SDS011;64986;55.672;37.628;2023-08-01T03:58:38;17.23;;;9.27;;
76204;SDS011;64986;55.672;37.628;2023-08-01T04:01:03;18.23;;;8.52;;
76204;SDS011;64986;55.672;37.628;2023-08-01T04:03:31;21.55;;;9.23;;
76204;SDS011;64986;55.672;37.628;2023-08-01T04:05:57;17.38;;;9.18;;
76204;SDS011;64986;55.672;37.628;2023-08-01T04:08:22;16.67;;;9.52;;
76204;SDS011;64986;55.672;37.628;2023-08-01T04:10:48;16.83;;;9.25;;
76204;SDS011;64986;55.672;37.628;2023-08-01T04:13:15;18.10;;;9.57;;
76204;SDS011;64986;55.672;37.628;2023-08-01T04:15:40;24.48;;;10.82;;
76204;SDS011;64986;55.672;37.628;2023-08-01T04:18:06;15.15;;;9.50;;
76204;SDS011;64986;55.672;37.628;2023-08-01T04:20:31;14.30;;;8.68;;
76204;SDS011;64986;55.672;37.628;2023-08-01T04:22:57;20.17;;;9.10;;
76204;SDS011;64986;55.672;37.628;2023-08-01T04:25:22;19.45;;;9.52;;
76204;SDS011;64986;55.672;37.628;2023-08-01T04:27:50;13.40;;;8.18;;
76204;SDS011;64986;55.672;37.628;2023-08-01T04:30:15;17.60;;;9.48;;
76204;SDS011;64986;55.672;37.628;2023-08-01T04:32:41;17.83;;;9.45;;
76204;SDS011;64986;55.672;37.628;2023-08-01T04:35:06;15.88;;;8.07;;
76204;SDS011;64986;55.672;37.628;2023-08-01T04:37:32;18.15;;;9.13;;
76204;SDS011;64986;55.672;37.628;2023-08-01T04:39:58;20.15;;;9.80;;
76204;SDS011;64986;55.672;37.628;2023-08-01T04:42:23;12.52;;;8.23;;
76204;SDS011;64986;55.672;37.628;2023-08-01T04:44:49;14.13;;;8.13;;
76204;SDS011;64986;55.672;37.628;2023-08-01T04:47:14;21.13;;;8.93;;
76204;SDS011;64986;55.672;37.628;2023-08-01T04:49:40;12.30;;;6.15;;
76204;SDS011;64986;55.672;37.628;2023-08-01T04:52:05;12.38;;;7.15;;
76204;SDS011;64986;55.672;37.628;2023-08-01T04:54:31;19.20;;;9.23;;
76204;SDS011;64986;55.672;37.628;2023-08-01T04:56:57;15.07;;;8.55;;
76204;SDS011;64986;55.672;37.628;2023-08-01T04:59:22;19.75;;;8.80;;
76204;SDS011;64986;55.672;37.628;2023-08-01T05:01:48;16.85;;;8.25;;
76204;SDS011;64986;55.672;37.628;2023-08-01T05:04:13;19.33;;;7.30;;
76204;SDS011;64986;55.672;37.628;2023-08-01T05:06:39;10.88;;;6.13;;
76204;SDS011;64986;55.672;37.628;2023-08-01T05:09:05;10.95;;;5.43;;
76204;SDS011;64986;55.672;37.628;2023-08-01T05:11:32;9.43;;;5.63;;
76204;SDS011;64986;55.672;37.628;2023-08-01T05:13:57;8.80;;;5.05;;
76204;SDS011;64986;55.672;37.628;2023-08-01T05:16:23;10.80;;;5.72;;
76204;SDS011;64986;55.672;37.628;2023-08-01T05:18:48;12.63;;;6.38;;
76204;SDS011;64986;55.672;37.628;2023-08-01T05:21:14;10.05;;;5.55;;
76204;SDS011;64986;55.672;37.628;2023-08-01T05:23:39;6.35;;;4.18;;
76204;SDS011;64986;55.672;37.628;2023-08-01T05:26:05;5.65;;;4.32;;
76204;SDS011;64986;55.672;37.628;2023-08-01T05:28:30;8.85;;;4.72;;
76204;SDS011;64986;55.672;37.628;2023-08-01T05:30:56;8.25;;;4.07;;
76204;SDS011;64986;55.672;37.628;2023-08-01T05:33:21;5.07;;;3.38;;
76204;SDS011;64986;55.672;37.628;2023-08-01T05:35:48;9.35;;;3.97;;
76204;SDS011;64986;55.672;37.628;2023-08-01T05:38:13;6.80;;;3.50;;
76204;SDS011;64986;55.672;37.628;2023-08-01T05:40:39;8.23;;;4.05;;
76204;SDS011;64986;55.672;37.628;2023-08-01T05:43:04;9.07;;;4.40;;
76204;SDS011;64986;55.672;37.628;2023-08-01T05:45:33;9.38;;;4.28;;
76204;SDS011;64986;55.672;37.628;2023-08-01T05:47:59;8.70;;;4.57;;
76204;SDS011;64986;55.672;37.628;2023-08-01T05:50:25;9.90;;;5.60;;
76204;SDS011;64986;55.672;37.628;2023-08-01T05:52:51;9.25;;;4.78;;
76204;SDS011;64986;55.672;37.628;2023-08-01T05:55:16;11.25;;;5.43;;
76204;SDS011;64986;55.672;37.628;2023-08-01T05:57:42;10.18;;;5.35;;
76204;SDS011;64986;55.672;37.628;2023-08-01T06:00:08;7.35;;;4.43;;
76204;SDS011;64986;55.672;37.628;2023-08-01T06:02:34;8.27;;;4.20;;
76204;SDS011;64986;55.672;37.628;2023-08-01T06:04:59;5.82;;;3.97;;
76204;SDS011;64986;55.672;37.628;2023-08-01T06:07:25;4.72;;;3.53;;
76204;SDS011;64986;55.672;37.628;2023-08-01T06:09:50;4.82;;;3.03;;
76204;SDS011;64986;55.672;37.628;2023-08-01T06:12:17;7.00;;;3.17;;
76204;SDS011;64986;55.672;37.628;2023-08-01T06:14:43;14.25;;;4.63;;
76204;SDS011;64986;55.672;37.628;2023-08-01T06:17:09;6.70;;;3.30;;
76204;SDS011;64986;55.672;37.628;2023-08-01T06:19:34;3.50;;;2.53;;
76204;SDS011;64986;55.672;37.628;2023-08-01T06:22:00;3.30;;;2.53;;
76204;SDS011;64986;55.672;37.628;2023-08-01T06:24:25;6.18;;;2.95;;
76204;SDS011;64986;55.672;37.628;2023-08-01T06:26:51;3.15;;;2.28;;
76204;SDS011;64986;55.672;37.628;2023-08-01T06:29:16;4.88;;;2.47;;
76204;SDS011;64986;55.672;37.628;2023-08-01T06:31:42;5.15;;;2.55;;
76204;SDS011;64986;55.672;37.628;2023-08-01T06:34:07;3.75;;;2.50;;
76204;SDS011;64986;55.672;37.628;2023-08-01T06:36:33;3.47;;;2.47;;
76204;SDS011;64986;55.672;37.628;2023-08-01T06:38:58;2.75;;;2.50;;
76204;SDS011;64986;55.672;37.628;2023-08-01T06:41:24;2.45;;;2.03;;
76204;SDS011;64986;55.672;37.628;2023-08-01T06:43:50;3.17;;;2.47;;
76204;SDS011;64986;55.672;37.628;2023-08-01T06:46:16;4.07;;;2.58;;
76204;SDS011;64986;55.672;37.628;2023-08-01T06:48:41;3.63;;;2.25;;
76204;SDS011;64986;55.672;37.628;2023-08-01T06:51:07;5.15;;;2.55;;
76204;SDS011;64986;55.672;37.628;2023-08-01T06:53:32;3.95;;;2.40;;
76204;SDS011;64986;55.672;37.628;2023-08-01T06:55:58;2.83;;;2.28;;
76204;SDS011;64986;55.672;37.628;2023-08-01T06:58:23;5.45;;;2.95;;
76204;SDS011;64986;55.672;37.628;2023-08-01T07:00:49;4.53;;;2.65;;
76204;SDS011;64986;55.672;37.628;2023-08-01T07:03:14;3.80;;;2.58;;
76204;SDS011;64986;55.672;37.628;2023-08-01T07:05:40;5.40;;;2.90;;
76204;SDS011;64986;55.672;37.628;2023-08-01T07:08:05;2.95;;;2.20;;
76204;SDS011;64986;55.672;37.628;2023-08-01T07:10:34;5.38;;;2.58;;
76204;SDS011;64986;55.672;37.628;2023-08-01T07:13:00;3.40;;;2.47;;
76204;SDS011;64986;55.672;37.628;2023-08-01T07:15:28;5.13;;;2.70;;
76204;SDS011;64986;55.672;37.628;2023-08-01T07:17:54;4.82;;;2.33;;
76204;SDS011;64986;55.672;37.628;2023-08-01T07:20:20;4.15;;;2.30;;
76204;SDS011;64986;55.672;37.628;2023-08-01T07:22:45;5.35;;;2.60;;
76204;SDS011;64986;55.672;37.628;2023-08-01T07:25:11;4.75;;;3.13;;
76204;SDS011;64986;55.672;37.628;2023-08-01T07:27:36;5.45;;;3.25;;
76204;SDS011;64986;55.672;37.628;2023-08-01T07:30:03;4.97;;;2.45;;
76204;SDS011;64986;55.672;37.628;2023-08-01T07:32:30;4.68;;;2.75;;
76204;SDS011;64986;55.672;37.628;2023-08-01T07:34:55;4.97;;;2.75;;
76204;SDS011;64986;55.672;37.628;2023-08-01T07:37:21;4.22;;;2.50;;
76204;SDS011;64986;55.672;37.628;2023-08-01T07:39:46;3.75;;;2.53;;
76204;SDS011;64986;55.672;37.628;2023-08-01T07:45:05;5.60;;;2.45;;
76204;SDS011;64986;55.672;37.628;2023-08-01T07:47:32;3.65;;;3.08;;
76204;SDS011;64986;55.672;37.628;2023-08-01T07:49:57;5.18;;;3.03;;
76204;SDS011;64986;55.672;37.628;2023-08-01T07:52:23;4.80;;;3.13;;
76204;SDS011;64986;55.672;37.628;2023-08-01T07:54:48;4.53;;;3.70;;
76204;SDS011;64986;55.672;37.628;2023-08-01T07:57:14;6.20;;;2.92;;
76204;SDS011;64986;55.672;37.628;2023-08-01T07:59:39;3.67;;;2.75;;
76204;SDS011;64986;55.672;37.628;2023-08-01T08:02:05;7.30;;;3.70;;
76204;SDS011;64986;55.672;37.628;2023-08-01T08:04:30;7.43;;;3.65;;
76204;SDS011;64986;55.672;37.628;2023-08-01T08:06:56;6.78;;;3.00;;
76204;SDS011;64986;55.672;37.628;2023-08-01T08:09:25;6.55;;;3.47;;
76204;SDS011;64986;55.672;37.628;2023-08-01T08:11:51;6.15;;;4.30;;
76204;SDS011;64986;55.672;37.628;2023-08-01T08:14:17;7.00;;;3.30;;
76204;SDS011;64986;55.672;37.628;2023-08-01T08:16:42;4.22;;;3.00;;
76204;SDS011;64986;55.672;37.628;2023-08-01T08:19:08;5.00;;;2.75;;
76204;SDS011;64986;55.672;37.628;2023-08-01T08:21:34;3.85;;;2.80;;
76204;SDS011;64986;55.672;37.628;2023-08-01T08:23:59;4.63;;;2.90;;
76204;SDS011;64986;55.672;37.628;2023-08-01T08:26:25;4.65;;;3.20;;
76204;SDS011;64986;55.672;37.628;2023-08-01T08:28:51;5.78;;;3.10;;
76204;SDS011;64986;55.672;37.628;2023-08-01T08:31:17;7.90;;;3.53;;
76204;SDS011;64986;55.672;37.628;2023-08-01T08:33:43;5.03;;;2.95;;
76204;SDS011;64986;55.672;37.628;2023-08-01T08:36:08;6.60;;;3.45;;
76204;SDS011;64986;55.672;37.628;2023-08-01T08:38:34;4.47;;;2.95;;
76204;SDS011;64986;55.672;37.628;2023-08-01T08:41:07;5.95;;;2.95;;
76204;SDS011;64986;55.672;37.628;2023-08-01T08:43:34;6.45;;;4.85;;
76204;SDS011;64986;55.672;37.628;2023-08-01T08:46:00;5.47;;;3.47;;
76204;SDS011;64986;55.672;37.628;2023-08-01T08:48:28;8.38;;;3.92;;
76204;SDS011;64986;55.672;37.628;2023-08-01T08:50:54;4.95;;;3.20;;
76204;SDS011;64986;55.672;37.628;2023-08-01T08:53:24;5.65;;;3.13;;
76204;SDS011;64986;55.672;37.628;2023-08-01T08:55:49;4.93;;;3.38;;
76204;SDS011;64986;55.672;37.628;2023-08-01T08:58:15;6.28;;;3.15;;
76204;SDS011;64986;55.672;37.628;2023-08-01T09:00:41;4.75;;;2.95;;
76204;SDS011;64986;55.672;37.628;2023-08-01T09:03:08;4.55;;;3.72;;
76204;SDS011;64986;55.672;37.628;2023-08-01T09:05:44;4.85;;;3.00;;
76204;SDS011;64986;55.672;37.628;2023-08-01T09:08:31;2.83;;;2.47;;
76204;SDS011;64986;55.672;37.628;2023-08-01T09:11:00;6.07;;;3.30;;
76204;SDS011;64986;55.672;37.628;2023-08-01T09:13:25;4.32;;;2.72;;
76204;SDS011;64986;55.672;37.628;2023-08-01T09:15:51;4.25;;;2.95;;
76204;SDS011;64986;55.672;37.628;2023-08-01T09:18:17;4.60;;;3.05;;
76204;SDS011;64986;55.672;37.628;2023-08-01T09:20:43;5.75;;;3.42;;
76204;SDS011;64986;55.672;37.628;2023-08-01T09:23:10;6.47;;;3.30;;
76204;SDS011;64986;55.672;37.628;2023-08-01T09:25:36;5.75;;;3.28;;
76204;SDS011;64986;55.672;37.628;2023-08-01T09:28:02;3.97;;;3.00;;
76204;SDS011;64986;55.672;37.628;2023-08-01T09:30:28;6.57;;;3.40;;
76204;SDS011;64986;55.672;37.628;2023-08-01T09:32:54;8.35;;;3.40;;
76204;SDS011;64986;55.672;37.628;2023-08-01T09:35:20;7.40;;;3.45;;
76204;SDS011;64986;55.672;37.628;2023-08-01T09:37:47;5.30;;;3.53;;
76204;SDS011;64986;55.672;37.628;2023-08-01T09:40:13;5.35;;;3.08;;
76204;SDS011;64986;55.672;37.628;2023-08-01T09:42:40;6.50;;;3.08;;
76204;SDS011;64986;55.672;37.628;2023-08-01T09:45:13;5.35;;;3.30;;
76204;SDS011;64986;55.672;37.628;2023-08-01T09:47:43;6.82;;;3.47;;
76204;SDS011;64986;55.672;37.628;2023-08-01T09:50:10;4.65;;;2.70;;
76204;SDS011;64986;55.672;37.628;2023-08-01T09:52:38;3.15;;;2.35;;
76204;SDS011;64986;55.672;37.628;2023-08-01T09:55:04;7.20;;;2.70;;
76204;SDS011;64986;55.672;37.628;2023-08-01T09:57:30;6.10;;;3.20;;
76204;SDS011;64986;55.672;37.628;2023-08-01T09:59:57;5.75;;;3.15;;
76204;SDS011;64986;55.672;37.628;2023-08-01T10:02:24;5.20;;;2.78;;
76204;SDS011;64986;55.672;37.628;2023-08-01T10:04:52;3.92;;;2.45;;
76204;SDS011;64986;55.672;37.628;2023-08-01T10:07:20;7.30;;;2.88;;
76204;SDS011;64986;55.672;37.628;2023-08-01T10:09:49;3.38;;;2.17;;
76204;SDS011;64986;55.672;37.628;2023-08-01T10:12:17;3.45;;;2.28;;
76204;SDS011;64986;55.672;37.628;2023-08-01T10:14:43;7.32;;;2.75;;
76204;SDS011;64986;55.672;37.628;2023-08-01T10:17:10;4.63;;;2.40;;
76204;SDS011;64986;55.672;37.628;2023-08-01T10:19:36;7.22;;;2.67;;
76204;SDS011;64986;55.672;37.628;2023-08-01T10:22:03;5.00;;;2.72;;
76204;SDS011;64986;55.672;37.628;2023-08-01T10:24:29;4.30;;;2.80;;
76204;SDS011;64986;55.672;37.628;2023-08-01T10:26:55;3.10;;;2.25;;
76204;SDS011;64986;55.672;37.628;2023-08-01T10:29:20;7.47;;;2.50;;
76204;SDS011;64986;55.672;37.628;2023-08-01T10:31:54;6.13;;;3.33;;
76204;SDS011;64986;55.672;37.628;2023-08-01T10:36:55;4.03;;;2.42;;
76204;SDS011;64986;55.672;37.628;2023-08-01T10:39:24;5.22;;;2.65;;
76204;SDS011;64986;55.672;37.628;2023-08-01T10:41:57;5.72;;;3.20;;
76204;SDS011;64986;55.672;37.628;2023-08-01T10:44:23;6.97;;;3.22;;
76204;SDS011;64986;55.672;37.628;2023-08-01T10:46:49;5.18;;;2.75;;
76204;SDS011;64986;55.672;37.628;2023-08-01T10:49:15;5.78;;;2.58;;
76204;SDS011;64986;55.672;37.628;2023-08-01T10:51:40;3.78;;;2.70;;
76204;SDS011;64986;55.672;37.628;2023-08-01T10:54:17;6.43;;;4.25;;
76204;SDS011;64986;55.672;37.628;2023-08-01T10:56:44;7.25;;;4.20;;
76204;SDS011;64986;55.672;37.628;2023-08-01T10:59:11;4.75;;;3.08;;
76204;SDS011;64986;55.672;37.628;2023-08-01T11:01:45;5.57;;;2.90;;
76204;SDS011;64986;55.672;37.628;2023-08-01T11:04:14;4.53;;;2.75;;
76204;SDS011;64986;55.672;37.628;2023-08-01T11:06:46;3.38;;;2.85;;
76204;SDS011;64986;55.672;37.628;2023-08-01T11:09:19;6.00;;;2.57;;
76204;SDS011;64986;55.672;37.628;2023-08-01T11:11:47;5.22;;;3.10;;
76204;SDS011;64986;55.672;37.628;2023-08-01T11:14:14;5.55;;;3.05;;
76204;SDS011;64986;55.672;37.628;2023-08-01T11:16:40;9.32;;;3.97;;
76204;SDS011;64986;55.672;37.628;2023-08-01T11:19:17;4.60;;;2.67;;
76204;SDS011;64986;55.672;37.628;2023-08-01T11:21:43;5.50;;;3.10;;
76204;SDS011;64986;55.672;37.628;2023-08-01T11:24:09;5.93;;;2.60;;
76204;SDS011;64986;55.672;37.628;2023-08-01T11:26:34;5.57;;;2.78;;
76204;SDS011;64986;55.672;37.628;2023-08-01T11:29:02;6.22;;;3.38;;
76204;SDS011;64986;55.672;37.628;2023-08-01T11:31:28;4.45;;;2.80;;
76204;SDS011;64986;55.672;37.628;2023-08-01T11:33:56;7.47;;;4.60;;
76204;SDS011;64986;55.672;37.628;2023-08-01T11:36:26;2.30;;;2.10;;
76204;SDS011;64986;55.672;37.628;2023-08-01T11:38:53;4.03;;;2.42;;
76204;SDS011;64986;55.672;37.628;2023-08-01T11:41:18;4.28;;;2.60;;
76204;SDS011;64986;55.672;37.628;2023-08-01T11:43:44;6.60;;;3.03;;
76204;SDS011;64986;55.672;37.628;2023-08-01T11:46:09;3.83;;;2.75;;
76204;SDS011;64986;55.672;37.628;2023-08-01T11:48:35;3.28;;;2.75;;
76204;SDS011;64986;55.672;37.628;2023-08-01T11:51:01;7.15;;;4.10;;
76204;SDS011;64986;55.672;37.628;2023-08-01T11:53:28;3.75;;;3.10;;
76204;SDS011;64986;55.672;37.628;2023-08-01T11:55:54;4.40;;;2.60;;
76204;SDS011;64986;55.672;37.628;2023-08-01T12:01:13;2.88;;;2.58;;
76204;SDS011;64986;55.672;37.628;2023-08-01T12:03:42;3.13;;;2.67;;
76204;SDS011;64986;55.672;37.628;2023-08-01T12:06:09;5.10;;;3.85;;
76204;SDS011;64986;55.672;37.628;2023-08-01T12:08:37;4.47;;;1.90;;
76204;SDS011;64986;55.672;37.628;2023-08-01T12:11:03;3.35;;;2.00;;
76204;SDS011;64986;55.672;37.628;2023-08-01T12:13:29;4.45;;;2.60;;
76204;SDS011;64986;55.672;37.628;2023-08-01T12:15:56;7.05;;;4.22;;
76204;SDS011;64986;55.672;37.628;2023-08-01T12:18:28;6.45;;;3.60;;
76204;SDS011;64986;55.672;37.628;2023-08-01T12:20:55;5.53;;;2.90;;
76204;SDS011;64986;55.672;37.628;2023-08-01T12:23:21;4.18;;;3.35;;
76204;SDS011;64986;55.672;37.628;2023-08-01T12:25:47;6.82;;;3.38;;
76204;SDS011;64986;55.672;37.628;2023-08-01T12:28:13;6.60;;;3.25;;
76204;SDS011;64986;55.672;37.628;2023-08-01T12:30:40;7.35;;;3.60;;
76204;SDS011;64986;55.672;37.628;2023-08-01T12:33:06;7.88;;;4.10;;
76204;SDS011;64986;55.672;37.628;2023-08-01T12:35:38;3.55;;;2.60;;
76204;SDS011;64986;55.672;37.628;2023-08-01T12:38:05;3.35;;;2.95;;
76204;SDS011;64986;55.672;37.628;2023-08-01T12:40:31;7.63;;;2.70;;
76204;SDS011;64986;55.672;37.628;2023-08-01T12:42:57;3.10;;;2.50;;
76204;SDS011;64986;55.672;37.628;2023-08-01T12:45:22;6.37;;;4.07;;
76204;SDS011;64986;55.672;37.628;2023-08-01T12:47:48;4.57;;;2.70;;
76204;SDS011;64986;55.672;37.628;2023-08-01T12:50:14;7.00;;;3.80;;
76204;SDS011;64986;55.672;37.628;2023-08-01T12:52:39;5.03;;;2.90;;
76204;SDS011;64986;55.672;37.628;2023-08-01T12:55:05;4.20;;;2.80;;
76204;SDS011;64986;55.672;37.628;2023-08-01T12:57:31;9.10;;;4.50;;
76204;SDS011;64986;55.672;37.628;2023-08-01T12:59:56;11.00;;;6.13;;
76204;SDS011;64986;55.672;37.628;2023-08-01T13:02:22;7.65;;;5.20;;
76204;SDS011;64986;55.672;37.628;2023-08-01T13:04:47;10.05;;;6.75;;
76204;SDS011;64986;55.672;37.628;2023-08-01T13:07:13;6.85;;;3.60;;
76204;SDS011;64986;55.672;37.628;2023-08-01T13:09:38;4.72;;;2.50;;
76204;SDS011;64986;55.672;37.628;2023-08-01T13:12:04;5.63;;;2.47;;
76204;SDS011;64986;55.672;37.628;2023-08-01T13:14:31;5.25;;;3.05;;
76204;SDS011;64986;55.672;37.628;2023-08-01T13:16:57;10.30;;;3.55;;
76204;SDS011;64986;55.672;37.628;2023-08-01T13:19:24;5.03;;;2.58;;
76204;SDS011;64986;55.672;37.628;2023-08-01T13:21:50;6.55;;;2.78;;
76204;SDS011;64986;55.672;37.628;2023-08-01T13:24:15;3.72;;;3.08;;
76204;SDS011;64986;55.672;37.628;2023-08-01T13:26:41;4.82;;;2.92;;
76204;SDS011;64986;55.672;37.628;2023-08-01T13:29:06;7.30;;;3.80;;
76204;SDS011;64986;55.672;37.628;2023-08-01T13:31:32;8.45;;;6.85;;
76204;SDS011;64986;55.672;37.628;2023-08-01T13:33:57;7.97;;;4.18;;
76204;SDS011;64986;55.672;37.628;2023-08-01T13:36:23;3.63;;;2.75;;
76204;SDS011;64986;55.672;37.628;2023-08-01T13:38:49;2.80;;;2.47;;
76204;SDS011;64986;55.672;37.628;2023-08-01T13:41:15;4.38;;;3.03;;
76204;SDS011;64986;55.672;37.628;2023-08-01T13:43:41;7.18;;;3.47;;
76204;SDS011;64986;55.672;37.628;2023-08-01T13:46:11;4.63;;;2.85;;
76204;SDS011;64986;55.672;37.628;2023-08-01T13:48:38;4.70;;;2.88;;
76204;SDS011;64986;55.672;37.628;2023-08-01T13:51:04;3.35;;;2.70;;
76204;SDS011;64986;55.672;37.628;2023-08-01T13:53:29;4.38;;;2.67;;
76204;SDS011;64986;55.672;37.628;2023-08-01T13:55:55;6.03;;;3.10;;
76204;SDS011;64986;55.672;37.628;2023-08-01T13:58:21;2.42;;;2.08;;
76204;SDS011;64986;55.672;37.628;2023-08-01T14:00:46;7.47;;;3.50;;
76204;SDS011;64986;55.672;37.628;2023-08-01T14:03:12;4.70;;;3.40;;
76204;SDS011;64986;55.672;37.628;2023-08-01T14:05:37;2.78;;;2.13;;
76204;SDS011;64986;55.672;37.628;2023-08-01T14:08:02;2.70;;;2.10;;
76204;SDS011;64986;55.672;37.628;2023-08-01T14:10:28;7.60;;;2.50;;
76204;SDS011;64986;55.672;37.628;2023-08-01T14:12:54;3.53;;;2.25;;
76204;SDS011;64986;55.672;37.628;2023-08-01T14:15:19;4.78;;;2.95;;
76204;SDS011;64986;55.672;37.628;2023-08-01T14:17:46;6.35;;;2.45;;
76204;SDS011;64986;55.672;37.628;2023-08-01T14:20:12;5.30;;;2.20;;
76204;SDS011;64986;55.672;37.628;2023-08-01T14:22:37;6.13;;;2.50;;
76204;SDS011;64986;55.672;37.628;2023-08-01T14:25:03;6.05;;;2.45;;
76204;SDS011;64986;55.672;37.628;2023-08-01T14:27:31;3.30;;;1.98;;
76204;SDS011;64986;55.672;37.628;2023-08-01T14:29:56;8.40;;;5.70;;
76204;SDS011;64986;55.672;37.628;2023-08-01T14:32:22;7.15;;;3.85;;
76204;SDS011;64986;55.672;37.628;2023-08-01T14:34:47;6.47;;;3.15;;
76204;SDS011;64986;55.672;37.628;2023-08-01T14:37:13;3.80;;;2.60;;